Time;durP1;ratioP1;P1;durP2;ratioP2;P2;SDS_P1;SDS_P2;PMS_P1;PMS_P2;Temp;Humidity;BMP_temperature;BMP_pressure;BME280_temperature;BME280_humidity;BME280_pressure;Samples;Min_cycle;Max_cycle;Signal;HPM_P1;HPM_P2
2021/09/11 00:01:44;;;;;;;9.00;8.20;;;19.80;99.90;;;;;;4996069;28;20483;-74
2021/09/11 00:04:29;;;;;;;10.67;9.47;;;19.90;99.90;;;;;;4995372;28;20451;-74
2021/09/11 00:07:16;;;;;;;9.70;8.70;;;20.00;99.90;;;;;;5000211;28;20440;-74
2021/09/11 00:10:01;;;;;;;8.50;7.60;;;20.00;99.90;;;;;;5003058;28;20492;-74
2021/09/11 00:12:49;;;;;;;9.60;8.47;;;20.00;99.90;;;;;;5004893;28;20460;-74
2021/09/11 00:15:36;;;;;;;8.73;7.83;;;20.00;99.90;;;;;;5001044;28;20428;-74
2021/09/11 00:18:22;;;;;;;8.17;7.37;;;20.00;99.90;;;;;;4995986;28;20504;-74
2021/09/11 00:21:07;;;;;;;8.60;7.80;;;19.90;99.90;;;;;;4996959;28;20538;-74
2021/09/11 00:23:53;;;;;;;8.83;7.93;;;20.00;99.90;;;;;;5005395;28;20453;-74
2021/09/11 00:26:39;;;;;;;8.37;7.57;;;20.00;99.90;;;;;;5004272;28;20472;-75
2021/09/11 00:29:26;;;;;;;8.90;8.00;;;20.00;99.90;;;;;;4997524;28;21019;-74
2021/09/11 00:32:12;;;;;;;9.00;7.97;;;19.90;99.90;;;;;;4994388;28;20584;-74
2021/09/11 00:34:57;;;;;;;9.13;8.23;;;19.90;99.90;;;;;;5002421;28;20448;-74
2021/09/11 00:37:44;;;;;;;9.17;8.13;;;20.00;99.90;;;;;;4993845;28;20528;-75
2021/09/11 00:40:30;;;;;;;8.97;7.00;;;20.00;99.90;;;;;;4994740;28;20830;-74
2021/09/11 00:43:21;;;;;;;9.00;8.10;;;19.90;99.90;;;;;;4996975;28;21063;-74
2021/09/11 00:46:09;;;;;;;8.23;7.43;;;19.90;99.90;;;;;;4991197;28;20519;-74
2021/09/11 00:48:54;;;;;;;8.60;7.70;;;19.80;99.90;;;;;;4998526;28;20850;-75
2021/09/11 00:51:41;;;;;;;9.27;8.37;;;19.60;99.90;;;;;;4998799;28;20573;-74
2021/09/11 00:54:26;;;;;;;9.10;8.20;;;19.50;99.90;;;;;;4999572;28;20471;-74
2021/09/11 00:57:12;;;;;;;8.60;7.73;;;19.50;99.90;;;;;;4988913;28;20462;-74
2021/09/11 00:59:58;;;;;;;9.40;8.50;;;19.60;99.90;;;;;;5001870;28;20474;-75
2021/09/11 01:02:45;;;;;;;9.83;8.83;;;19.70;99.90;;;;;;4998046;28;20541;-75
2021/09/11 01:05:31;;;;;;;8.73;7.47;;;19.70;99.90;;;;;;5003215;28;20457;-74
2021/09/11 01:08:16;;;;;;;9.57;8.57;;;19.70;99.90;;;;;;4990184;28;20550;-75
2021/09/11 01:11:02;;;;;;;9.57;8.67;;;19.70;99.90;;;;;;4997542;28;20444;-75
2021/09/11 01:13:48;;;;;;;9.80;8.80;;;19.70;99.90;;;;;;5001084;28;20423;-74
2021/09/11 01:16:34;;;;;;;11.30;8.30;;;19.70;99.90;;;;;;4992647;28;20517;-74
2021/09/11 01:19:21;;;;;;;9.77;8.83;;;19.80;99.90;;;;;;4999984;28;20607;-75
2021/09/11 01:22:13;;;;;;;8.57;7.83;;;19.80;99.90;;;;;;4999536;28;21039;-74
2021/09/11 01:25:01;;;;;;;9.07;7.20;;;19.80;99.90;;;;;;4992021;28;20427;-74
2021/09/11 01:27:47;;;;;;;12.53;8.07;;;19.80;99.90;;;;;;4999547;28;20452;-74
2021/09/11 01:30:33;;;;;;;9.20;7.60;;;19.80;99.90;;;;;;5001587;28;20449;-75
2021/09/11 01:33:19;;;;;;;9.17;8.13;;;19.80;99.90;;;;;;4997800;28;20823;-75
2021/09/11 01:36:05;;;;;;;9.70;8.67;;;19.80;99.90;;;;;;5002171;28;20535;-75
2021/09/11 01:38:51;;;;;;;9.80;8.90;;;19.80;99.90;;;;;;4999729;28;20479;-75
2021/09/11 01:41:37;;;;;;;12.43;9.80;;;19.80;99.90;;;;;;4997995;28;20555;-75
2021/09/11 01:44:23;;;;;;;11.10;9.87;;;19.70;99.90;;;;;;4994386;28;20474;-75
2021/09/11 01:47:09;;;;;;;12.10;10.90;;;19.70;99.90;;;;;;4991713;28;20815;-75
2021/09/11 01:49:55;;;;;;;11.07;9.93;;;19.80;99.90;;;;;;4999044;28;20809;-75
2021/09/11 01:52:41;;;;;;;11.60;10.47;;;19.80;99.90;;;;;;4999801;28;20456;-75
2021/09/11 01:55:26;;;;;;;13.83;10.30;;;19.80;99.90;;;;;;5001514;28;20429;-75
2021/09/11 01:58:13;;;;;;;13.07;10.77;;;19.70;99.90;;;;;;4998107;28;20811;-75
2021/09/11 02:00:59;;;;;;;12.67;11.47;;;19.70;99.90;;;;;;5010363;28;20474;-75
2021/09/11 02:03:44;;;;;;;13.23;11.90;;;19.70;99.90;;;;;;5000652;28;21019;-75
2021/09/11 02:06:30;;;;;;;14.17;12.20;;;19.80;99.90;;;;;;4994042;28;20584;-75
2021/09/11 02:09:16;;;;;;;13.03;11.77;;;19.80;99.90;;;;;;4991355;28;20825;-75
2021/09/11 02:12:01;;;;;;;14.20;12.90;;;19.80;99.90;;;;;;5002618;28;20444;-75
2021/09/11 02:14:48;;;;;;;15.03;13.53;;;19.80;99.90;;;;;;5002850;28;20586;-75
2021/09/11 02:17:34;;;;;;;14.80;11.80;;;19.80;99.90;;;;;;4993405;28;20523;-75
2021/09/11 02:20:21;;;;;;;12.93;11.47;;;19.80;99.90;;;;;;4995659;28;20530;-75
2021/09/11 02:23:07;;;;;;;15.83;13.10;;;19.80;99.90;;;;;;4994349;28;20424;-75
2021/09/11 02:25:52;;;;;;;14.53;13.10;;;19.80;99.90;;;;;;5001667;28;20813;-75
2021/09/11 02:28:38;;;;;;;14.70;13.27;;;19.80;99.90;;;;;;5000763;28;20835;-75
2021/09/11 02:31:25;;;;;;;15.20;13.70;;;19.70;99.90;;;;;;4997988;28;20495;-75
2021/09/11 02:34:10;;;;;;;15.70;14.20;;;19.80;99.90;;;;;;5004620;28;20454;-75
2021/09/11 02:36:56;;;;;;;15.80;14.00;;;19.70;99.90;;;;;;5002632;28;20590;-75
2021/09/11 02:39:43;;;;;;;18.87;15.70;;;19.60;99.90;;;;;;5001821;28;20475;-75
2021/09/11 02:42:29;;;;;;;15.67;13.80;;;19.60;99.90;;;;;;4999055;28;20482;-75
2021/09/11 02:45:15;;;;;;;15.63;13.77;;;19.60;99.90;;;;;;4985802;28;20496;-76
2021/09/11 02:48:02;;;;;;;15.80;14.30;;;19.50;99.90;;;;;;5007730;28;20999;-75
2021/09/11 02:50:48;;;;;;;15.83;14.30;;;19.50;99.90;;;;;;4994164;28;20927;-75
2021/09/11 02:53:34;;;;;;;18.13;14.93;;;19.50;99.90;;;;;;5002243;28;20424;-75
2021/09/11 02:56:20;;;;;;;17.10;15.30;;;19.40;99.90;;;;;;4989002;28;20526;-75
2021/09/11 02:59:06;;;;;;;15.67;13.97;;;19.40;99.90;;;;;;4991738;28;20841;-75
2021/09/11 03:01:51;;;;;;;29.83;15.10;;;19.30;99.90;;;;;;4995207;28;20880;-75
2021/09/11 03:04:38;;;;;;;16.27;14.67;;;19.20;99.90;;;;;;4999434;28;20417;-75
2021/09/11 03:07:25;;;;;;;16.23;14.60;;;19.20;99.90;;;;;;4998566;28;20426;-75
2021/09/11 03:10:11;;;;;;;16.23;13.93;;;19.30;99.90;;;;;;5066725;22;20810;-75
2021/09/11 03:12:57;;;;;;;17.03;13.73;;;19.30;99.90;;;;;;5046579;28;20417;-72
2021/09/11 03:15:42;;;;;;;18.40;13.50;;;19.30;99.90;;;;;;5043220;28;20500;-73
2021/09/11 03:18:28;;;;;;;16.50;14.03;;;19.30;99.90;;;;;;5048529;28;20933;-72
2021/09/11 03:21:15;;;;;;;18.13;13.70;;;19.20;99.90;;;;;;5032057;28;20552;-72
2021/09/11 03:24:01;;;;;;;16.27;14.67;;;19.20;99.90;;;;;;5029011;28;20416;-73
2021/09/11 03:26:46;;;;;;;13.57;12.17;;;19.20;99.90;;;;;;5031367;28;20455;-73
2021/09/11 03:29:32;;;;;;;16.03;13.30;;;19.30;99.90;;;;;;5032036;28;20441;-72
2021/09/11 03:32:17;;;;;;;15.33;13.73;;;19.40;99.90;;;;;;5029454;28;20809;-73
2021/09/11 03:35:03;;;;;;;14.90;13.50;;;19.50;99.90;;;;;;5029547;28;20480;-73
2021/09/11 03:37:51;;;;;;;14.47;13.00;;;19.50;99.90;;;;;;5034614;28;20534;-72
2021/09/11 03:40:37;;;;;;;13.33;12.03;;;19.50;99.90;;;;;;5031655;28;20445;-72
2021/09/11 03:43:22;;;;;;;14.30;12.17;;;19.30;99.90;;;;;;5032640;28;20478;-72
2021/09/11 03:46:08;;;;;;;14.20;12.80;;;19.40;99.90;;;;;;5025877;28;20450;-73
2021/09/11 03:48:53;;;;;;;13.97;12.53;;;19.40;99.90;;;;;;5030484;28;20995;-73
2021/09/11 03:51:39;;;;;;;14.20;12.80;;;19.40;99.90;;;;;;5027797;28;20409;-72
2021/09/11 03:54:26;;;;;;;14.23;12.80;;;19.40;99.90;;;;;;5025896;28;20426;-72
2021/09/11 03:57:12;;;;;;;14.47;13.07;;;19.40;99.90;;;;;;5031161;28;20425;-72
2021/09/11 03:59:57;;;;;;;16.73;12.60;;;19.40;99.90;;;;;;5024732;28;20589;-72
2021/09/11 04:02:42;;;;;;;14.07;12.23;;;19.50;99.90;;;;;;5029791;28;20482;-72
2021/09/11 04:05:28;;;;;;;16.33;12.73;;;19.50;99.90;;;;;;5030213;28;20922;-73
2021/09/11 04:08:13;;;;;;;14.00;12.57;;;19.50;99.90;;;;;;5031811;28;20423;-72
2021/09/11 04:11:01;;;;;;;14.53;13.10;;;19.40;99.90;;;;;;5030190;28;20468;-73
2021/09/11 04:13:46;;;;;;;13.17;11.87;;;19.20;99.90;;;;;;5029236;28;20437;-72
2021/09/11 04:16:32;;;;;;;14.20;11.90;;;19.10;99.90;;;;;;5030392;28;20497;-72
2021/09/11 04:19:18;;;;;;;12.77;11.50;;;19.00;99.90;;;;;;5030807;28;20459;-73
2021/09/11 04:22:04;;;;;;;11.80;10.60;;;19.10;99.90;;;;;;5032901;28;20605;-72
2021/09/11 04:24:50;;;;;;;12.90;11.57;;;19.10;99.90;;;;;;5032160;28;20454;-72
2021/09/11 04:27:37;;;;;;;15.20;11.30;;;19.10;99.90;;;;;;5032451;28;20484;-72
2021/09/11 04:30:23;;;;;;;18.07;11.17;;;19.00;99.90;;;;;;5028416;28;20474;-73
2021/09/11 04:33:08;;;;;;;12.63;11.43;;;19.10;99.90;;;;;;5025474;28;20759;-72
2021/09/11 04:35:54;;;;;;;11.07;9.97;;;19.10;99.90;;;;;;5033661;28;20567;-71
2021/09/11 04:38:41;;;;;;;13.50;9.90;;;19.10;99.90;;;;;;5031993;28;20957;-72
2021/09/11 04:41:27;;;;;;;12.47;10.00;;;18.90;99.90;;;;;;5027292;28;20535;-72
2021/09/11 04:44:14;;;;;;;10.70;9.40;;;18.90;99.90;;;;;;5029690;28;20457;-72
2021/09/11 04:47:00;;;;;;;12.83;10.50;;;18.70;99.90;;;;;;5030911;28;20454;-72
2021/09/11 04:49:45;;;;;;;13.93;8.97;;;18.70;99.90;;;;;;5030413;28;20474;-71
2021/09/11 04:52:31;;;;;;;11.00;9.80;;;18.80;99.90;;;;;;5028386;28;20468;-71
2021/09/11 04:55:17;;;;;;;9.47;7.90;;;18.90;99.90;;;;;;5031159;28;20425;-71
2021/09/11 04:58:02;;;;;;;11.93;9.00;;;18.80;99.90;;;;;;5027134;28;20815;-71
2021/09/11 05:00:49;;;;;;;9.63;8.73;;;18.80;99.90;;;;;;5028480;28;20815;-70
2021/09/11 05:03:36;;;;;;;11.53;9.20;;;18.80;99.90;;;;;;5030697;28;20533;-71
2021/09/11 05:06:21;;;;;;;10.40;9.07;;;18.80;99.90;;;;;;5032393;28;20426;-71
2021/09/11 05:09:07;;;;;;;10.23;9.13;;;18.90;99.90;;;;;;5031045;28;20795;-70
2021/09/11 05:11:53;;;;;;;9.60;8.37;;;19.00;99.90;;;;;;5028777;28;20451;-72
2021/09/11 05:14:39;;;;;;;12.30;9.60;;;18.90;99.90;;;;;;5029716;28;20451;-72
2021/09/11 05:17:26;;;;;;;9.40;8.23;;;19.00;99.90;;;;;;5023608;28;20457;-71
2021/09/11 05:20:13;;;;;;;9.33;8.00;;;19.00;99.90;;;;;;5029480;28;20981;-70
2021/09/11 05:22:58;;;;;;;10.30;9.30;;;18.90;99.90;;;;;;5028363;28;20473;-70
2021/09/11 05:25:44;;;;;;;9.80;8.80;;;18.80;99.90;;;;;;5029463;28;20518;-70
2021/09/11 05:28:29;;;;;;;9.37;8.47;;;18.80;99.90;;;;;;5028937;28;20811;-71
2021/09/11 05:31:15;;;;;;;8.87;7.97;;;18.90;99.90;;;;;;5029287;28;20442;-70
2021/09/11 05:34:05;;;;;;;10.07;8.90;;;19.00;99.90;;;;;;5030684;28;20424;-70
2021/09/11 05:36:50;;;;;;;11.17;8.00;;;19.10;99.90;;;;;;5032628;28;20437;-70
2021/09/11 05:39:36;;;;;;;14.13;7.90;;;19.10;99.90;;;;;;5033963;28;20480;-70
2021/09/11 05:42:21;;;;;;;12.63;9.60;;;19.00;99.90;;;;;;5032967;28;20469;-70
2021/09/11 05:45:08;;;;;;;10.60;9.47;;;18.90;99.90;;;;;;5032553;28;20518;-70
2021/09/11 05:47:53;;;;;;;15.43;9.13;;;19.00;99.90;;;;;;5033990;28;20755;-70
2021/09/11 05:50:41;;;;;;;8.80;7.90;;;19.10;99.90;;;;;;5031944;28;20974;-70
2021/09/11 05:53:26;;;;;;;11.10;8.60;;;19.00;99.90;;;;;;5027405;28;20917;-71
2021/09/11 05:56:12;;;;;;;9.87;8.30;;;19.10;99.90;;;;;;5034328;28;20396;-70
2021/09/11 05:58:58;;;;;;;10.43;9.33;;;19.00;99.90;;;;;;5030186;28;20897;-70
2021/09/11 06:01:44;;;;;;;9.07;8.10;;;19.10;99.90;;;;;;5033616;28;20470;-70
2021/09/11 06:04:30;;;;;;;14.60;7.87;;;19.20;99.90;;;;;;5033003;28;20428;-70
2021/09/11 06:07:17;;;;;;;9.80;8.20;;;19.30;99.90;;;;;;5033698;28;20510;-70
2021/09/11 06:10:03;;;;;;;9.13;8.23;;;19.40;99.90;;;;;;5033474;28;20975;-71
2021/09/11 06:12:49;;;;;;;8.90;8.10;;;19.30;99.90;;;;;;5028945;28;20799;-73
2021/09/11 06:15:34;;;;;;;13.30;8.20;;;19.30;99.90;;;;;;5028318;28;20424;-70
2021/09/11 06:18:20;;;;;;;8.90;8.00;;;19.40;99.90;;;;;;5027293;28;20425;-70
2021/09/11 06:21:06;;;;;;;8.40;7.50;;;19.40;99.90;;;;;;5033502;28;20762;-70
2021/09/11 06:23:53;;;;;;;9.20;8.30;;;19.40;99.90;;;;;;5029662;28;20420;-71
2021/09/11 06:26:39;;;;;;;9.47;8.57;;;19.40;99.90;;;;;;5029209;28;20457;-71
2021/09/11 06:29:25;;;;;;;9.37;7.57;;;19.30;99.90;;;;;;5024046;28;20987;-70
2021/09/11 06:32:10;;;;;;;9.73;8.20;;;19.30;99.90;;;;;;5032102;28;21700;-70
2021/09/11 06:34:56;;;;;;;11.77;8.13;;;19.30;99.90;;;;;;5033560;28;20430;-70
2021/09/11 06:37:42;;;;;;;8.87;7.90;;;19.30;99.90;;;;;;5033060;28;20535;-71
2021/09/11 06:40:29;;;;;;;9.23;8.10;;;19.40;99.90;;;;;;5028545;28;20442;-71
2021/09/11 06:43:15;;;;;;;8.60;7.77;;;19.40;99.90;;;;;;5023673;28;20482;-70
2021/09/11 06:46:00;;;;;;;8.83;7.97;;;19.30;99.90;;;;;;5030885;28;20999;-70
2021/09/11 06:48:46;;;;;;;11.40;9.00;;;19.20;99.90;;;;;;5032346;28;20528;-71
2021/09/11 06:51:32;;;;;;;9.47;8.13;;;19.10;99.90;;;;;;5030002;28;20416;-71
2021/09/11 06:54:18;;;;;;;12.90;8.90;;;18.90;99.90;;;;;;5031477;28;20529;-73
2021/09/11 06:57:05;;;;;;;8.50;7.60;;;18.90;99.90;;;;;;5028955;28;20464;-73
2021/09/11 06:59:50;;;;;;;9.17;7.70;;;18.90;99.90;;;;;;5031111;28;20823;-74
2021/09/11 07:02:36;;;;;;;9.77;8.80;;;18.90;99.90;;;;;;5030944;28;20608;-73
2021/09/11 07:05:22;;;;;;;15.30;9.20;;;19.10;99.90;;;;;;5013117;28;20696;-72
2021/09/11 07:08:08;;;;;;;13.27;7.40;;;19.20;99.90;;;;;;5033171;28;20393;-72
2021/09/11 07:10:54;;;;;;;8.03;6.80;;;19.40;99.90;;;;;;5031948;28;20443;-73
2021/09/11 07:13:41;;;;;;;11.60;8.47;;;19.30;99.90;;;;;;5027971;28;20445;-73
2021/09/11 07:16:27;;;;;;;14.03;7.93;;;19.20;99.90;;;;;;5032774;28;20976;-71
2021/09/11 07:19:12;;;;;;;9.73;8.07;;;19.10;99.90;;;;;;5031076;28;20444;-71
2021/09/11 07:21:58;;;;;;;9.57;7.80;;;18.90;99.90;;;;;;5029807;28;21030;-70
2021/09/11 07:24:43;;;;;;;10.07;7.80;;;19.00;99.90;;;;;;5026856;28;20419;-70
2021/09/11 07:27:29;;;;;;;9.83;7.77;;;19.00;99.90;;;;;;5027829;28;20821;-71
2021/09/11 07:30:16;;;;;;;11.17;7.10;;;18.90;99.90;;;;;;5032932;28;20412;-70
2021/09/11 07:33:02;;;;;;;12.63;8.00;;;19.00;99.90;;;;;;5030064;28;20442;-70
2021/09/11 07:35:47;;;;;;;12.00;7.80;;;19.10;99.90;;;;;;5030476;28;21311;-70
2021/09/11 07:38:34;;;;;;;8.93;8.00;;;19.20;99.90;;;;;;5029964;28;20970;-71
2021/09/11 07:41:19;;;;;;;8.13;6.77;;;19.20;99.90;;;;;;5026985;28;20454;-71
2021/09/11 07:44:05;;;;;;;9.63;7.47;;;19.20;99.90;;;;;;5030323;28;20444;-70
2021/09/11 07:46:52;;;;;;;9.70;7.07;;;19.30;99.90;;;;;;5030009;28;20476;-71
2021/09/11 07:49:37;;;;;;;7.40;6.60;;;19.40;99.90;;;;;;5030381;28;20579;-70
2021/09/11 07:52:23;;;;;;;7.90;7.03;;;19.50;99.90;;;;;;5029641;28;20876;-70
2021/09/11 07:55:10;;;;;;;10.27;7.53;;;19.50;99.90;;;;;;5030008;28;20536;-70
2021/09/11 07:57:56;;;;;;;7.93;7.17;;;19.50;99.90;;;;;;5029233;28;20955;-71
2021/09/11 08:00:42;;;;;;;9.63;7.70;;;19.40;99.90;;;;;;5017076;28;20429;-71
2021/09/11 08:03:29;;;;;;;11.93;8.20;;;19.40;99.90;;;;;;5031247;28;20482;-70
2021/09/11 08:06:16;;;;;;;7.40;6.57;;;19.50;99.90;;;;;;5025433;28;20448;-70
2021/09/11 08:09:02;;;;;;;8.53;7.73;;;19.60;99.90;;;;;;5030292;28;20477;-70
2021/09/11 08:11:48;;;;;;;10.30;8.10;;;19.50;99.90;;;;;;5031861;28;20441;-70
2021/09/11 08:14:33;;;;;;;8.70;7.50;;;19.60;99.90;;;;;;5030560;28;20413;-69
2021/09/11 08:17:19;;;;;;;10.83;8.03;;;19.60;99.90;;;;;;5029218;28;20451;-70
2021/09/11 08:20:07;;;;;;;9.40;8.50;;;19.60;99.90;;;;;;5030060;28;20538;-70
2021/09/11 08:22:53;;;;;;;10.43;8.50;;;19.60;99.90;;;;;;5028785;28;20479;-70
2021/09/11 08:25:39;;;;;;;9.30;8.07;;;19.60;99.90;;;;;;5026209;28;20600;-70
2021/09/11 08:28:24;;;;;;;8.87;7.80;;;19.70;99.90;;;;;;5028122;28;20641;-70
2021/09/11 08:31:13;;;;;;;10.30;9.23;;;19.80;99.90;;;;;;5028217;28;20433;-70
2021/09/11 08:33:58;;;;;;;15.43;9.07;;;19.70;99.90;;;;;;5027751;28;20505;-70
2021/09/11 08:36:45;;;;;;;12.43;9.00;;;19.70;99.90;;;;;;5027830;28;20454;-70
2021/09/11 08:39:31;;;;;;;9.37;8.20;;;19.80;99.90;;;;;;5027767;28;20805;-70
2021/09/11 08:42:20;;;;;;;13.00;8.57;;;19.80;99.90;;;;;;5023829;28;20426;-70
2021/09/11 08:45:07;;;;;;;9.43;8.53;;;19.90;99.90;;;;;;5022298;28;20420;-70
2021/09/11 08:47:53;;;;;;;9.73;7.80;;;20.10;99.90;;;;;;5029640;28;20446;-70
2021/09/11 08:50:39;;;;;;;8.80;7.10;;;20.20;99.90;;;;;;5029201;28;20978;-71
2021/09/11 08:53:26;;;;;;;7.33;6.57;;;20.30;99.90;;;;;;5019187;28;20447;-70
2021/09/11 08:56:11;;;;;;;8.17;6.40;;;20.40;99.90;;;;;;5022475;28;20431;-71
2021/09/11 08:59:08;;;;;;;7.80;6.30;;;20.80;99.90;;;;;;5011365;28;20425;-70
2021/09/11 09:02:05;;;;;;;7.17;6.20;;;21.00;99.90;;;;;;5026970;28;20497;-70
2021/09/11 09:04:52;;;;;;;6.90;5.50;;;21.10;99.90;;;;;;5026050;28;20447;-70
2021/09/11 09:07:40;;;;;;;7.20;5.70;;;21.10;99.90;;;;;;5026656;28;20458;-71
2021/09/11 09:10:27;;;;;;;7.10;6.40;;;20.90;99.90;;;;;;5043383;22;21059;-76
2021/09/11 09:13:13;;;;;;;7.60;5.93;;;20.90;99.90;;;;;;5038338;28;20942;-76
2021/09/11 09:16:13;;;;;;;8.77;6.43;;;20.80;99.90;;;;;;5033170;28;20507;-76
2021/09/11 09:19:01;;;;;;;7.40;5.83;;;20.70;99.90;;;;;;5035102;28;20607;-76
2021/09/11 09:21:48;;;;;;;6.27;5.20;;;20.60;99.90;;;;;;5038856;28;20491;-76
2021/09/11 09:24:36;;;;;;;8.90;6.93;;;20.50;99.90;;;;;;5029252;28;20536;-76
2021/09/11 09:27:23;;;;;;;7.57;6.40;;;20.40;99.90;;;;;;5035866;28;20424;-76
2021/09/11 09:30:10;;;;;;;8.90;6.33;;;20.40;99.90;;;;;;5016580;28;20513;-76
2021/09/11 09:32:55;;;;;;;6.33;5.10;;;20.40;99.90;;;;;;5034669;28;20422;-76
2021/09/11 09:35:41;;;;;;;10.80;6.60;;;20.50;99.90;;;;;;5035899;28;20442;-76
2021/09/11 09:38:27;;;;;;;8.13;6.50;;;20.70;99.90;;;;;;5021182;28;20531;-75
2021/09/11 09:41:13;;;;;;;8.50;6.97;;;21.00;99.90;;;;;;5024039;28;20442;-77
2021/09/11 09:44:00;;;;;;;7.60;6.80;;;21.20;99.90;;;;;;5036165;28;20456;-75
2021/09/11 09:46:48;;;;;;;6.80;6.10;;;21.60;99.90;;;;;;5037207;28;20970;-77
2021/09/11 09:49:34;;;;;;;7.80;7.00;;;21.70;99.90;;;;;;5033710;28;20519;-77
2021/09/11 09:52:20;;;;;;;7.70;6.50;;;21.70;99.90;;;;;;5026862;28;20446;-77
2021/09/11 09:55:07;;;;;;;7.93;7.13;;;21.60;99.90;;;;;;5034694;28;20437;-77
2021/09/11 09:57:53;;;;;;;9.50;6.67;;;21.40;99.90;;;;;;5032282;28;20834;-76
2021/09/11 10:00:40;;;;;;;8.67;6.10;;;21.40;99.90;;;;;;5046765;28;20450;-77
2021/09/11 10:03:26;;;;;;;8.17;6.50;;;21.40;99.90;;;;;;5027617;28;20478;-77
2021/09/11 10:06:15;;;;;;;6.77;6.07;;;21.50;99.90;;;;;;5025354;28;20426;-76
2021/09/11 10:09:06;;;;;;;7.53;5.57;;;21.50;99.90;;;;;;5028907;28;20504;-74
2021/09/11 10:11:52;;;;;;;7.93;6.50;;;21.30;99.90;;;;;;5029338;28;20529;-76
2021/09/11 10:14:37;;;;;;;8.97;6.10;;;21.40;99.90;;;;;;5036306;28;20409;-77
2021/09/11 10:17:33;;;;;;;6.63;5.93;;;21.20;99.90;;;;;;5026616;28;20594;-77
2021/09/11 10:20:20;;;;;;;6.70;6.00;;;21.00;99.90;;;;;;5029689;28;20466;-75
2021/09/11 10:23:07;;;;;;;7.60;6.80;;;21.00;99.90;;;;;;5036894;28;20612;-77
2021/09/11 10:25:53;;;;;;;8.00;6.27;;;21.10;99.90;;;;;;5036467;28;20825;-77
2021/09/11 10:28:38;;;;;;;8.77;5.97;;;21.20;99.90;;;;;;5025693;28;20864;-77
2021/09/11 10:31:24;;;;;;;5.93;5.10;;;21.30;99.90;;;;;;5032333;28;20428;-77
2021/09/11 10:34:16;;;;;;;9.47;5.40;;;21.50;99.90;;;;;;5030801;28;20969;-77
2021/09/11 10:37:02;;;;;;;11.07;5.23;;;21.50;99.90;;;;;;5029458;28;20443;-77
2021/09/11 10:39:48;;;;;;;6.80;5.23;;;21.50;99.90;;;;;;5026188;28;20595;-77
2021/09/11 10:42:33;;;;;;;5.43;4.77;;;21.60;99.90;;;;;;5024824;28;20454;-77
2021/09/11 10:45:38;;;;;;;4.80;4.17;;;21.60;99.90;;;;;;5017658;28;20502;-76
2021/09/11 10:48:49;;;;;;;7.60;5.23;;;21.70;99.90;;;;;;5028618;28;20495;-76
2021/09/11 10:51:38;;;;;;;18.03;7.73;;;21.60;99.90;;;;;;5030912;28;20436;-76
2021/09/11 10:54:32;;;;;;;6.80;5.40;;;21.60;99.90;;;;;;5022353;28;20455;-76
2021/09/11 10:57:18;;;;;;;5.60;4.97;;;21.60;99.90;;;;;;5019260;28;20426;-76
2021/09/11 11:00:21;;;;;;;9.70;5.37;;;21.70;99.90;;;;;;5039328;28;20447;-76
2021/09/11 11:03:18;;;;;;;8.60;5.70;;;21.70;99.90;;;;;;5017986;28;20506;-76
2021/09/11 11:06:06;;;;;;;10.20;5.63;;;21.80;99.90;;;;;;5026233;28;20468;-75
2021/09/11 11:08:59;;;;;;;6.07;5.40;;;21.60;99.90;;;;;;5041698;28;20843;-76
2021/09/11 11:11:46;;;;;;;5.90;5.00;;;21.50;99.90;;;;;;5040316;28;20542;-76
2021/09/11 11:14:33;;;;;;;7.47;6.30;;;21.60;99.90;;;;;;5040703;28;20446;-75
2021/09/11 11:17:20;;;;;;;9.07;4.83;;;21.70;99.90;;;;;;5026004;28;20579;-75
2021/09/11 11:20:07;;;;;;;7.17;5.80;;;21.90;99.90;;;;;;5029454;28;20488;-76
2021/09/11 11:22:53;;;;;;;5.90;4.60;;;22.20;99.90;;;;;;5029248;28;20423;-75
2021/09/11 11:25:41;;;;;;;8.20;5.03;;;22.50;99.90;;;;;;5041873;28;20430;-76
2021/09/11 11:28:28;;;;;;;6.40;4.90;;;22.70;99.90;;;;;;5016622;28;20424;-76
2021/09/11 11:31:15;;;;;;;6.47;5.80;;;22.80;99.90;;;;;;5022097;28;20855;-75
2021/09/11 11:34:01;;;;;;;8.73;6.20;;;22.80;99.90;;;;;;5031228;28;21251;-76
2021/09/11 11:36:54;;;;;;;6.70;6.00;;;22.90;99.90;;;;;;5036271;28;20457;-75
2021/09/11 11:39:42;;;;;;;6.47;5.77;;;22.90;99.90;;;;;;5038457;28;20475;-75
2021/09/11 11:42:33;;;;;;;8.47;5.60;;;23.00;99.90;;;;;;5025623;28;20439;-75
2021/09/11 11:45:24;;;;;;;6.00;4.93;;;23.20;99.90;;;;;;5032836;28;20873;-74
2021/09/11 11:48:12;;;;;;;6.63;4.37;;;23.30;99.90;;;;;;5032880;28;20551;-76
2021/09/11 11:50:57;;;;;;;6.70;4.50;;;23.40;99.90;;;;;;5037120;28;20455;-75
2021/09/11 11:53:43;;;;;;;6.20;4.23;;;23.70;99.90;;;;;;5029529;28;20426;-75
2021/09/11 11:56:29;;;;;;;8.53;5.03;;;23.60;99.90;;;;;;5031202;28;20830;-74
2021/09/11 11:59:23;;;;;;;5.37;4.87;;;23.70;99.90;;;;;;5025503;28;20479;-75
2021/09/11 12:02:23;;;;;;;7.20;5.30;;;23.60;99.90;;;;;;5026691;28;20981;-76
2021/09/11 12:05:15;;;;;;;11.40;5.13;;;23.60;99.90;;;;;;5021393;28;20474;-75
2021/09/11 12:08:03;;;;;;;5.17;4.17;;;24.00;99.90;;;;;;5047316;28;20415;-76
2021/09/11 12:10:53;;;;;;;6.57;4.17;;;24.40;99.90;;;;;;5017169;28;20455;-75
2021/09/11 12:13:38;;;;;;;6.57;4.70;;;24.60;99.90;;;;;;5027115;28;20760;-75
2021/09/11 12:16:27;;;;;;;5.77;4.17;;;24.80;99.90;;;;;;5030432;28;20436;-76
2021/09/11 12:19:15;;;;;;;8.13;4.43;;;25.10;99.90;;;;;;5026407;28;20443;-76
2021/09/11 12:22:00;;;;;;;5.27;4.20;;;25.50;99.90;;;;;;5032221;28;20496;-76
2021/09/11 12:24:46;;;;;;;6.07;4.70;;;25.60;99.10;;;;;;5029299;28;20497;-76
2021/09/11 12:27:32;;;;;;;4.60;4.20;;;25.80;98.20;;;;;;5028803;28;20451;-75
2021/09/11 12:30:18;;;;;;;7.80;5.23;;;26.00;98.40;;;;;;5033777;28;20833;-73
2021/09/11 12:33:07;;;;;;;8.30;5.40;;;26.30;95.90;;;;;;5025238;28;20831;-75
2021/09/11 12:35:53;;;;;;;6.70;4.27;;;26.50;91.30;;;;;;5037625;28;20446;-75
2021/09/11 12:38:42;;;;;;;5.00;4.07;;;26.30;86.40;;;;;;5026293;28;20420;-75
2021/09/11 12:41:28;;;;;;;7.23;3.83;;;26.30;86.40;;;;;;5016932;28;20458;-75
2021/09/11 12:44:14;;;;;;;4.47;3.20;;;26.50;84.70;;;;;;5020955;28;20467;-75
2021/09/11 12:47:03;;;;;;;4.20;3.40;;;26.70;78.70;;;;;;5043405;28;20445;-75
2021/09/11 12:49:50;;;;;;;7.70;3.70;;;27.00;76.50;;;;;;5018392;28;20516;-74
2021/09/11 12:52:35;;;;;;;6.57;3.50;;;27.10;78.20;;;;;;5030144;28;20838;-76
2021/09/11 12:55:21;;;;;;;5.67;3.73;;;27.10;74.60;;;;;;5020380;28;20444;-75
2021/09/11 12:58:06;;;;;;;5.00;4.37;;;27.10;73.20;;;;;;5031700;28;20536;-76
2021/09/11 13:00:52;;;;;;;4.83;3.73;;;26.70;70.80;;;;;;5021638;28;20444;-74
2021/09/11 13:03:37;;;;;;;4.73;3.20;;;26.00;72.00;;;;;;5029884;28;20482;-76
2021/09/11 13:06:25;;;;;;;4.53;3.10;;;26.00;77.10;;;;;;5038498;28;20446;-75
2021/09/11 13:09:12;;;;;;;4.10;3.70;;;25.70;74.70;;;;;;5016930;28;20490;-76
2021/09/11 13:11:57;;;;;;;5.33;3.63;;;25.50;74.20;;;;;;5027605;28;20528;-75
2021/09/11 13:14:43;;;;;;;3.70;2.83;;;25.80;77.00;;;;;;5036540;28;20425;-75
2021/09/11 13:17:29;;;;;;;4.53;3.90;;;25.70;77.20;;;;;;5024761;28;20500;-75
2021/09/11 13:20:15;;;;;;;4.63;3.50;;;26.00;74.30;;;;;;5031545;28;20453;-75
2021/09/11 13:23:02;;;;;;;4.77;4.00;;;26.00;77.20;;;;;;5032465;28;20575;-76
2021/09/11 13:25:47;;;;;;;4.60;4.00;;;25.90;75.40;;;;;;5048016;28;20424;-75
2021/09/11 13:28:33;;;;;;;6.40;3.40;;;25.70;78.40;;;;;;5014104;28;20925;-75
2021/09/11 13:31:22;;;;;;;5.30;4.00;;;25.50;79.00;;;;;;5033469;28;20438;-75
2021/09/11 13:34:08;;;;;;;4.57;3.60;;;25.00;87.60;;;;;;5026393;28;20779;-74
2021/09/11 13:36:54;;;;;;;7.27;3.67;;;24.80;90.60;;;;;;5029049;28;20941;-76
2021/09/11 13:39:40;;;;;;;5.60;3.90;;;24.50;93.30;;;;;;5011588;28;20447;-76
2021/09/11 13:42:26;;;;;;;10.70;5.40;;;24.20;95.30;;;;;;5030398;28;20495;-75
2021/09/11 13:45:12;;;;;;;6.57;4.50;;;24.00;97.20;;;;;;5046300;28;20592;-75
2021/09/11 13:47:59;;;;;;;7.27;4.87;;;23.70;99.90;;;;;;5011805;28;20794;-75
2021/09/11 13:50:45;;;;;;;7.17;3.67;;;23.40;99.90;;;;;;5032071;28;20568;-75
2021/09/11 13:53:30;;;;;;;5.33;3.60;;;23.20;99.90;;;;;;5022179;28;20531;-75
2021/09/11 13:56:18;;;;;;;5.63;3.33;;;22.80;99.90;;;;;;5025925;28;20581;-73
2021/09/11 13:59:06;;;;;;;4.70;3.37;;;22.80;99.90;;;;;;5016078;28;20465;-75
2021/09/11 14:01:52;;;;;;;5.03;3.77;;;22.80;99.90;;;;;;5034727;28;20560;-75
2021/09/11 14:04:37;;;;;;;5.60;3.37;;;23.00;99.90;;;;;;5040952;28;20493;-76
2021/09/11 14:07:23;;;;;;;4.43;3.20;;;23.00;99.90;;;;;;5018993;28;20453;-75
2021/09/11 14:10:10;;;;;;;4.10;2.70;;;23.00;99.90;;;;;;5018582;28;20497;-75
2021/09/11 14:12:57;;;;;;;3.67;2.60;;;23.30;99.90;;;;;;5024057;28;20513;-76
2021/09/11 14:15:43;;;;;;;3.17;2.30;;;23.80;99.90;;;;;;5031170;28;20839;-76
2021/09/11 14:18:29;;;;;;;3.00;2.00;;;24.30;99.90;;;;;;5026977;28;20850;-76
2021/09/11 14:21:15;;;;;;;3.53;2.03;;;24.10;99.90;;;;;;5027549;28;20455;-75